createdAt,value
2019-03-17T00:01:35.428Z,4.60
2019-03-17T00:04:01.025Z,4.33
2019-03-17T00:06:26.668Z,5.47
2019-03-17T00:08:52.314Z,5.83
2019-03-17T00:11:17.852Z,5.03
2019-03-17T00:13:53.518Z,6.00
2019-03-17T00:19:02.992Z,5.57
2019-03-17T00:21:36.839Z,5.67
2019-03-17T00:24:35.884Z,5.60
2019-03-17T00:27:06.341Z,5.80
2019-03-17T00:29:41.656Z,6.77
2019-03-17T00:32:14.053Z,5.57
2019-03-17T00:34:46.243Z,7.70
2019-03-17T00:37:17.653Z,6.53
2019-03-17T00:39:43.634Z,6.87
2019-03-17T00:42:09.184Z,6.70
2019-03-17T00:44:34.811Z,6.20
2019-03-17T00:47:00.525Z,5.80
2019-03-17T00:49:26.045Z,6.93
2019-03-17T00:51:51.644Z,7.10
2019-03-17T00:54:17.393Z,7.23
2019-03-17T00:56:42.940Z,8.93
2019-03-17T00:59:08.501Z,7.40
2019-03-17T01:01:34.323Z,6.40
2019-03-17T01:04:00.010Z,5.73
2019-03-17T01:06:25.583Z,7.23
2019-03-17T01:08:51.334Z,6.90
2019-03-17T01:11:17.023Z,6.90
2019-03-17T01:13:42.592Z,6.67
2019-03-17T01:16:08.195Z,6.37
2019-03-17T01:18:33.856Z,6.70
2019-03-17T01:20:59.615Z,6.00
2019-03-17T01:23:25.312Z,6.57
2019-03-17T01:25:50.929Z,7.30
2019-03-17T01:28:16.552Z,6.53
2019-03-17T01:30:42.119Z,6.80
2019-03-17T01:33:07.828Z,7.10
2019-03-17T01:35:34.228Z,7.00
2019-03-17T01:37:59.877Z,6.33
2019-03-17T01:40:25.416Z,6.30
2019-03-17T01:42:50.975Z,6.50
2019-03-17T01:45:16.670Z,6.23
2019-03-17T01:47:42.403Z,7.20
2019-03-17T01:50:08.223Z,7.63
2019-03-17T01:52:34.489Z,7.90
2019-03-17T01:55:00.081Z,7.37
2019-03-17T01:57:25.739Z,6.93
2019-03-17T01:59:51.339Z,7.27
2019-03-17T02:02:17.043Z,7.30
2019-03-17T02:04:42.598Z,7.07
2019-03-17T02:07:08.332Z,6.90
2019-03-17T02:09:33.897Z,7.70
2019-03-17T02:11:59.478Z,7.03
2019-03-17T02:14:25.039Z,6.87
2019-03-17T02:16:50.575Z,6.50
2019-03-17T02:19:16.226Z,6.57
2019-03-17T02:21:41.955Z,7.50
2019-03-17T02:24:07.501Z,7.23
2019-03-17T02:26:33.071Z,7.03
2019-03-17T02:28:59.082Z,7.93
2019-03-17T02:31:24.751Z,7.47
2019-03-17T02:33:50.420Z,7.20
2019-03-17T02:36:15.995Z,6.57
2019-03-17T02:38:41.612Z,6.80
2019-03-17T02:41:07.401Z,6.93
2019-03-17T02:43:32.925Z,6.97
2019-03-17T02:45:58.472Z,6.70
2019-03-17T02:48:24.051Z,7.33
2019-03-17T02:50:49.620Z,5.73
2019-03-17T02:53:15.182Z,7.53
2019-03-17T02:55:40.891Z,6.80
2019-03-17T02:58:06.470Z,6.73
2019-03-17T03:00:32.011Z,5.90
2019-03-17T03:02:57.834Z,6.67
2019-03-17T03:05:23.414Z,6.33
2019-03-17T03:07:49.069Z,7.20
2019-03-17T03:10:14.698Z,6.30
2019-03-17T03:12:40.495Z,6.70
2019-03-17T03:15:06.951Z,6.20
2019-03-17T03:17:32.631Z,6.40
2019-03-17T03:19:58.171Z,6.90
2019-03-17T03:22:23.785Z,6.50
2019-03-17T03:24:49.463Z,7.03
2019-03-17T03:27:14.973Z,6.70
2019-03-17T03:29:41.395Z,7.40
2019-03-17T03:32:06.949Z,7.47
2019-03-17T03:34:32.464Z,6.97
2019-03-17T03:36:58.015Z,7.47
2019-03-17T03:42:39.162Z,7.67
2019-03-17T03:45:06.611Z,7.27
2019-03-17T03:47:32.423Z,6.80
2019-03-17T03:49:58.270Z,6.67
2019-03-17T03:52:23.778Z,7.00
2019-03-17T03:54:50.318Z,7.27
2019-03-17T03:57:15.937Z,8.10
2019-03-17T03:59:41.485Z,7.50
2019-03-17T04:02:07.022Z,7.30
2019-03-17T04:04:32.543Z,8.27
2019-03-17T04:06:58.067Z,9.00
2019-03-17T04:09:23.591Z,8.20
2019-03-17T04:11:49.129Z,8.53
2019-03-17T04:14:14.875Z,7.80
2019-03-17T04:16:40.423Z,8.00
2019-03-17T04:19:05.975Z,8.10
2019-03-17T04:21:31.491Z,7.70
2019-03-17T04:23:57.150Z,7.00
2019-03-17T04:26:22.677Z,6.60
2019-03-17T04:28:48.200Z,6.27
2019-03-17T04:31:14.669Z,7.03
2019-03-17T04:33:41.997Z,6.47
2019-03-17T04:36:07.520Z,5.80
2019-03-17T04:38:34.332Z,6.23
2019-03-17T04:40:59.866Z,5.63
2019-03-17T04:43:26.618Z,5.20
2019-03-17T04:45:52.187Z,5.73
2019-03-17T04:48:17.715Z,5.30
2019-03-17T04:50:43.559Z,5.60
2019-03-17T04:53:09.118Z,6.00
2019-03-17T04:55:34.651Z,5.00
2019-03-17T04:58:00.280Z,5.30
2019-03-17T05:00:25.818Z,4.53
2019-03-17T05:02:51.479Z,5.60
2019-03-17T05:05:17.060Z,5.57
2019-03-17T05:07:42.618Z,5.17
2019-03-17T05:10:08.532Z,5.87
2019-03-17T05:12:34.244Z,4.90
2019-03-17T05:14:59.878Z,5.60
2019-03-17T05:17:25.462Z,4.87
2019-03-17T05:19:51.023Z,5.77
2019-03-17T05:22:16.564Z,5.60
2019-03-17T05:24:42.132Z,5.80
2019-03-17T05:27:08.667Z,4.93
2019-03-17T05:29:34.383Z,5.10
2019-03-17T05:31:59.891Z,5.07
2019-03-17T05:34:25.472Z,6.07
2019-03-17T05:36:51.118Z,5.23
2019-03-17T05:39:16.731Z,5.17
2019-03-17T05:41:42.270Z,5.47
2019-03-17T05:44:07.803Z,5.13
2019-03-17T05:46:33.315Z,6.13
2019-03-17T05:48:58.960Z,4.90
2019-03-17T05:51:24.498Z,4.67
2019-03-17T05:53:50.152Z,4.83
2019-03-17T05:56:15.663Z,4.70
2019-03-17T05:58:41.209Z,5.60
2019-03-17T06:01:07.234Z,5.50
2019-03-17T06:03:32.867Z,5.17
2019-03-17T06:05:58.466Z,5.20
2019-03-17T06:08:24.064Z,4.53
2019-03-17T06:10:49.676Z,5.23
2019-03-17T06:13:15.355Z,5.00
2019-03-17T06:15:40.916Z,4.77
2019-03-17T06:18:06.434Z,4.57
2019-03-17T06:20:32.067Z,4.63
2019-03-17T06:22:57.668Z,4.73
2019-03-17T06:25:24.298Z,4.07
2019-03-17T06:27:55.931Z,5.03
2019-03-17T06:30:21.482Z,4.90
2019-03-17T06:32:47.023Z,4.80
2019-03-17T06:35:14.686Z,5.37
2019-03-17T06:37:40.274Z,6.10
2019-03-17T06:40:12.083Z,5.20
2019-03-17T06:42:37.649Z,5.57
2019-03-17T06:45:06.333Z,5.70
2019-03-17T06:47:32.871Z,5.93
2019-03-17T06:49:58.534Z,5.33
2019-03-17T06:52:24.132Z,2.47
2019-03-17T06:54:49.661Z,2.53
2019-03-17T06:57:15.187Z,1.70
2019-03-17T06:59:40.708Z,1.57
2019-03-17T07:02:06.368Z,1.77
2019-03-17T07:04:31.955Z,2.00
2019-03-17T07:06:57.532Z,2.00
2019-03-17T07:09:23.279Z,1.77
2019-03-17T07:11:48.817Z,1.70
2019-03-17T07:14:14.584Z,1.60
2019-03-17T07:16:40.243Z,2.30
2019-03-17T07:19:05.778Z,2.30
2019-03-17T07:21:31.374Z,1.90
2019-03-17T07:24:01.974Z,2.20
2019-03-17T07:26:27.619Z,2.00
2019-03-17T07:28:53.215Z,1.60
2019-03-17T07:31:18.923Z,2.30
2019-03-17T07:33:44.485Z,1.80
2019-03-17T07:36:10.026Z,2.10
2019-03-17T07:38:35.594Z,1.40
2019-03-17T07:41:01.186Z,1.57
2019-03-17T07:43:26.711Z,2.30
2019-03-17T07:45:52.260Z,1.77
2019-03-17T07:48:17.835Z,1.43
2019-03-17T07:50:43.364Z,1.63
2019-03-17T07:53:08.895Z,1.17
2019-03-17T07:55:34.513Z,1.27
2019-03-17T07:58:00.036Z,1.80
2019-03-17T08:00:31.700Z,1.27
2019-03-17T08:02:53.050Z,1.60
2019-03-17T08:05:20.147Z,1.70
2019-03-17T08:07:45.675Z,1.93
2019-03-17T08:10:13.189Z,1.43
2019-03-17T08:12:38.923Z,1.20
2019-03-17T08:15:05.892Z,1.20
2019-03-17T08:17:31.448Z,1.23
2019-03-17T08:19:56.999Z,1.63
2019-03-17T08:22:22.587Z,1.20
2019-03-17T08:24:48.247Z,1.73
2019-03-17T08:27:13.785Z,1.57
2019-03-17T08:29:39.399Z,1.70
2019-03-17T08:32:05.050Z,1.70
2019-03-17T08:34:30.776Z,2.03
2019-03-17T08:36:56.419Z,2.03
2019-03-17T08:39:21.990Z,2.47
2019-03-17T08:41:47.616Z,1.87
2019-03-17T08:44:13.469Z,1.60
2019-03-17T08:46:39.018Z,1.87
2019-03-17T08:49:05.660Z,1.70
2019-03-17T08:51:31.362Z,2.10
2019-03-17T08:53:57.029Z,1.73
2019-03-17T08:56:22.547Z,2.50
2019-03-17T08:58:48.237Z,3.00
2019-03-17T09:01:13.777Z,2.33
2019-03-17T09:03:39.376Z,2.13
2019-03-17T09:06:05.415Z,2.23
2019-03-17T09:08:35.356Z,3.07
2019-03-17T09:10:58.499Z,1.90
2019-03-17T09:13:24.368Z,2.63
2019-03-17T09:15:50.155Z,2.30
2019-03-17T09:18:15.733Z,2.00
2019-03-17T09:20:41.394Z,2.87
2019-03-17T09:23:07.101Z,2.37
2019-03-17T09:25:32.780Z,2.23
2019-03-17T09:27:58.403Z,2.77
2019-03-17T09:30:24.365Z,1.80
2019-03-17T09:32:50.040Z,2.83
2019-03-17T09:35:17.934Z,2.97
2019-03-17T09:37:43.566Z,2.00
2019-03-17T09:40:13.244Z,13.63
2019-03-17T09:42:38.950Z,3.20
2019-03-17T09:45:06.050Z,1.80
2019-03-17T09:47:31.901Z,2.40
2019-03-17T09:49:57.682Z,2.73
2019-03-17T09:52:23.524Z,2.40
2019-03-17T09:54:49.230Z,2.20
2019-03-17T09:57:14.842Z,2.50
2019-03-17T09:59:40.532Z,3.00
2019-03-17T10:02:06.174Z,2.67
2019-03-17T10:04:32.148Z,2.10
2019-03-17T10:06:57.837Z,2.33
2019-03-17T10:09:23.736Z,2.30
2019-03-17T10:11:49.786Z,2.23
2019-03-17T10:14:15.695Z,2.80
2019-03-17T10:16:46.680Z,2.00
2019-03-17T10:19:12.305Z,2.50
2019-03-17T10:21:37.993Z,2.47
2019-03-17T10:24:03.834Z,8.37
2019-03-17T10:26:29.400Z,7.07
2019-03-17T10:28:55.038Z,2.80
2019-03-17T10:31:20.658Z,2.87
2019-03-17T10:33:52.339Z,2.47
2019-03-17T10:39:12.470Z,2.30
2019-03-17T10:41:36.415Z,2.43
2019-03-17T10:44:04.257Z,2.07
2019-03-17T10:46:31.233Z,2.90
2019-03-17T10:49:08.966Z,2.60
2019-03-17T10:51:41.864Z,2.60
2019-03-17T10:54:19.068Z,10.93
2019-03-17T10:56:48.683Z,4.50
2019-03-17T10:59:14.229Z,2.40
2019-03-17T11:01:40.018Z,2.10
2019-03-17T11:04:05.584Z,2.37
2019-03-17T11:06:31.552Z,2.20
2019-03-17T11:08:57.264Z,2.50
2019-03-17T11:11:27.358Z,2.33
2019-03-17T11:13:53.164Z,2.20
2019-03-17T11:16:19.227Z,2.40
2019-03-17T11:18:44.962Z,2.20
2019-03-17T11:21:10.804Z,2.30
2019-03-17T11:23:37.465Z,2.90
2019-03-17T11:26:03.128Z,2.03
2019-03-17T11:28:30.170Z,2.17
2019-03-17T11:30:56.592Z,2.70
2019-03-17T11:33:23.547Z,2.43
2019-03-17T11:35:50.620Z,2.10
2019-03-17T11:38:16.721Z,1.97
2019-03-17T11:40:43.383Z,1.83
2019-03-17T11:43:09.052Z,2.30
2019-03-17T11:45:34.668Z,1.70
2019-03-17T11:48:00.758Z,2.80
2019-03-17T11:50:27.204Z,2.00
2019-03-17T11:52:53.956Z,2.20
2019-03-17T11:55:19.724Z,2.00
2019-03-17T11:57:47.961Z,2.10
2019-03-17T12:00:24.983Z,1.90
2019-03-17T12:02:50.924Z,2.13
2019-03-17T12:05:20.986Z,2.27
2019-03-17T12:07:47.199Z,2.17
2019-03-17T12:10:16.144Z,2.23
2019-03-17T12:12:41.892Z,1.83
2019-03-17T12:15:15.394Z,1.93
2019-03-17T12:17:41.117Z,2.60
2019-03-17T12:20:11.329Z,2.50
2019-03-17T12:22:36.932Z,2.10
2019-03-17T12:25:03.475Z,2.00
2019-03-17T12:27:29.127Z,2.07
2019-03-17T12:29:54.693Z,2.23
2019-03-17T12:32:20.264Z,2.03
2019-03-17T12:34:46.201Z,2.17
2019-03-17T12:37:11.980Z,1.80
2019-03-17T12:39:38.548Z,1.67
2019-03-17T12:42:04.086Z,1.90
2019-03-17T12:44:29.742Z,2.30
2019-03-17T12:46:55.294Z,1.93
2019-03-17T12:49:21.006Z,2.87
2019-03-17T12:51:46.601Z,2.97
2019-03-17T12:54:12.396Z,1.90
2019-03-17T12:56:38.082Z,4.53
2019-03-17T12:59:03.617Z,3.07
2019-03-17T13:01:29.192Z,2.00
2019-03-17T13:03:54.731Z,2.03
2019-03-17T13:06:20.299Z,1.57
2019-03-17T13:08:45.966Z,1.70
2019-03-17T13:11:11.600Z,1.43
2019-03-17T13:13:37.142Z,1.80
2019-03-17T13:16:03.699Z,2.00
2019-03-17T13:18:29.612Z,1.80
2019-03-17T13:20:55.307Z,1.83
2019-03-17T13:23:20.882Z,1.60
2019-03-17T13:25:47.468Z,1.87
2019-03-17T13:28:13.081Z,1.70
2019-03-17T13:30:39.057Z,1.33
2019-03-17T13:33:06.744Z,1.90
2019-03-17T13:35:32.302Z,1.27
2019-03-17T13:37:57.868Z,1.40
2019-03-17T13:40:29.571Z,1.33
2019-03-17T13:42:50.983Z,1.60
2019-03-17T13:45:16.764Z,1.37
2019-03-17T13:47:46.096Z,1.50
2019-03-17T13:50:13.565Z,1.37
2019-03-17T13:52:39.125Z,1.80
2019-03-17T13:55:06.371Z,1.73
2019-03-17T13:57:31.956Z,3.97
2019-03-17T13:59:57.784Z,3.07
2019-03-17T14:02:23.426Z,1.47
2019-03-17T14:04:56.002Z,1.43
2019-03-17T14:07:30.245Z,1.10
2019-03-17T14:09:55.805Z,1.53
2019-03-17T14:12:21.480Z,1.10
2019-03-17T14:14:47.149Z,1.63
2019-03-17T14:17:12.793Z,1.33
2019-03-17T14:19:38.467Z,1.50
2019-03-17T14:22:24.916Z,1.63
2019-03-17T14:24:44.183Z,1.73
2019-03-17T14:27:09.974Z,1.47
2019-03-17T14:29:35.525Z,1.63
2019-03-17T14:32:01.199Z,1.70
2019-03-17T14:34:29.493Z,1.47
2019-03-17T14:36:55.052Z,1.50
2019-03-17T14:39:20.868Z,1.50
2019-03-17T14:41:46.424Z,1.77
2019-03-17T14:44:12.078Z,1.53
2019-03-17T14:46:37.687Z,1.50
2019-03-17T14:49:09.736Z,1.90
2019-03-17T14:51:35.680Z,2.00
2019-03-17T14:54:01.308Z,1.83
2019-03-17T14:56:26.972Z,1.47
2019-03-17T14:58:56.484Z,1.47
2019-03-17T15:01:22.053Z,2.03
2019-03-17T15:03:47.653Z,1.33
2019-03-17T15:06:13.343Z,1.63
2019-03-17T15:08:39.035Z,1.43
2019-03-17T15:11:06.047Z,1.40
2019-03-17T15:13:32.285Z,1.63
2019-03-17T15:16:02.812Z,1.47
2019-03-17T15:18:25.531Z,1.70
2019-03-17T15:20:51.223Z,2.23
2019-03-17T15:23:16.847Z,1.83
2019-03-17T15:25:42.552Z,2.70
2019-03-17T15:28:08.350Z,2.10
2019-03-17T15:30:34.452Z,1.70
2019-03-17T15:33:00.094Z,1.47
2019-03-17T15:35:25.607Z,1.73
2019-03-17T15:37:54.118Z,1.40
2019-03-17T15:40:20.366Z,1.93
2019-03-17T15:42:46.012Z,1.67
2019-03-17T15:45:12.594Z,1.80
2019-03-17T15:47:38.195Z,2.00
2019-03-17T15:50:06.307Z,1.50
2019-03-17T15:52:31.866Z,1.87
2019-03-17T15:54:57.454Z,1.63
2019-03-17T15:57:23.204Z,1.60
2019-03-17T15:59:49.221Z,1.50
2019-03-17T16:02:15.006Z,1.97
2019-03-17T16:04:40.544Z,2.07
2019-03-17T16:07:06.090Z,1.80
2019-03-17T16:09:32.259Z,1.83
2019-03-17T16:11:58.410Z,1.83
2019-03-17T16:14:24.044Z,2.33
2019-03-17T16:16:49.596Z,2.30
2019-03-17T16:19:15.179Z,1.70
2019-03-17T16:21:40.769Z,1.73
2019-03-17T16:24:06.287Z,2.57
2019-03-17T16:26:31.995Z,2.73
2019-03-17T16:28:57.774Z,2.33
2019-03-17T16:31:23.447Z,2.80
2019-03-17T16:33:48.970Z,2.17
2019-03-17T16:36:14.512Z,2.63
2019-03-17T16:38:40.116Z,1.77
2019-03-17T16:41:05.646Z,2.37
2019-03-17T16:43:31.311Z,2.07
2019-03-17T16:45:56.940Z,2.47
2019-03-17T16:48:22.756Z,2.40
2019-03-17T16:50:48.336Z,1.90
2019-03-17T16:53:13.875Z,1.77
2019-03-17T16:55:39.427Z,1.70
2019-03-17T16:58:04.955Z,2.00
2019-03-17T17:00:30.521Z,2.30
2019-03-17T17:02:56.412Z,3.00
2019-03-17T17:05:22.439Z,1.83
2019-03-17T17:07:48.244Z,1.87
2019-03-17T17:10:14.686Z,3.17
2019-03-17T17:12:40.217Z,2.37
2019-03-17T17:15:07.714Z,2.17
2019-03-17T17:17:33.279Z,2.17
2019-03-17T17:19:58.798Z,2.70
2019-03-17T17:22:24.331Z,3.20
2019-03-17T17:24:51.994Z,1.70
2019-03-17T17:27:20.404Z,2.40
2019-03-17T17:29:44.981Z,2.30
2019-03-17T17:32:10.666Z,1.90
2019-03-17T17:34:36.272Z,3.50
2019-03-17T17:37:01.904Z,2.90
2019-03-17T17:39:27.460Z,2.20
2019-03-17T17:44:53.884Z,2.10
2019-03-17T17:47:19.871Z,2.00
2019-03-17T17:49:45.688Z,2.13
2019-03-17T17:52:11.351Z,2.30
2019-03-17T17:54:42.129Z,1.67
2019-03-17T17:57:07.683Z,1.93
2019-03-17T17:59:33.227Z,2.27
2019-03-17T18:01:59.796Z,1.83
2019-03-17T18:04:25.357Z,3.30
2019-03-17T18:06:50.898Z,2.10
2019-03-17T18:09:16.478Z,2.27
2019-03-17T18:11:42.098Z,2.53
2019-03-17T18:14:07.704Z,2.63
2019-03-17T18:16:33.227Z,3.03
2019-03-17T18:18:58.840Z,3.90
2019-03-17T18:21:24.668Z,4.17
2019-03-17T18:23:50.379Z,2.90
2019-03-17T18:26:16.002Z,2.00
2019-03-17T18:28:41.558Z,2.13
2019-03-17T18:31:07.255Z,3.13
2019-03-17T18:33:32.822Z,1.87
2019-03-17T18:35:58.464Z,2.03
2019-03-17T18:38:25.028Z,2.83
2019-03-17T18:40:50.675Z,2.03
2019-03-17T18:43:17.250Z,2.43
2019-03-17T18:45:42.941Z,1.83
2019-03-17T18:48:08.491Z,2.77
2019-03-17T18:50:34.045Z,2.93
2019-03-17T18:52:59.567Z,2.80
2019-03-17T18:55:25.134Z,1.97
2019-03-17T18:57:50.832Z,1.70
2019-03-17T19:00:17.067Z,2.10
2019-03-17T19:02:42.714Z,1.97
2019-03-17T19:05:09.662Z,2.37
2019-03-17T19:07:36.452Z,3.23
2019-03-17T19:10:02.550Z,2.20
2019-03-17T19:12:28.279Z,2.30
2019-03-17T19:14:53.819Z,2.30
2019-03-17T19:17:19.334Z,2.47
2019-03-17T19:19:45.250Z,2.23
2019-03-17T19:22:10.840Z,2.17
2019-03-17T19:24:36.390Z,2.03
2019-03-17T19:27:27.977Z,1.90
2019-03-17T19:29:53.497Z,2.30
2019-03-17T19:32:20.195Z,2.23
2019-03-17T19:34:45.724Z,1.80
2019-03-17T19:37:13.405Z,3.83
2019-03-17T19:39:40.280Z,2.30
2019-03-17T19:42:11.873Z,2.00
2019-03-17T19:44:37.434Z,2.70
2019-03-17T19:47:03.063Z,2.70
2019-03-17T19:49:28.616Z,2.20
2019-03-17T19:51:56.127Z,2.07
2019-03-17T19:54:21.658Z,2.20
2019-03-17T19:56:50.586Z,2.00
2019-03-17T19:59:16.107Z,2.17
2019-03-17T20:01:43.879Z,1.77
2019-03-17T20:04:09.464Z,1.97
2019-03-17T20:06:35.016Z,1.70
2019-03-17T20:09:05.783Z,2.43
2019-03-17T20:11:31.589Z,2.10
2019-03-17T20:13:57.128Z,1.70
2019-03-17T20:16:22.743Z,1.73
2019-03-17T20:18:49.998Z,2.73
2019-03-17T20:21:15.635Z,4.00
2019-03-17T20:23:41.194Z,4.47
2019-03-17T20:26:08.651Z,3.40
2019-03-17T20:28:34.180Z,3.20
2019-03-17T20:31:02.374Z,3.00
2019-03-17T20:33:29.207Z,2.80
2019-03-17T20:36:01.953Z,2.20
2019-03-17T20:38:27.494Z,2.23
2019-03-17T20:40:53.056Z,2.60
2019-03-17T20:43:34.220Z,2.30
2019-03-17T20:45:47.038Z,2.43
2019-03-17T20:48:15.866Z,4.23
2019-03-17T20:50:41.648Z,2.50
2019-03-17T20:53:07.192Z,2.10
2019-03-17T20:55:32.758Z,2.27
2019-03-17T20:57:58.293Z,1.93
2019-03-17T21:00:25.979Z,2.90
2019-03-17T21:02:51.571Z,3.53
2019-03-17T21:05:17.470Z,3.00
2019-03-17T21:07:44.899Z,2.13
2019-03-17T21:10:13.868Z,1.90
2019-03-17T21:12:39.537Z,2.43
2019-03-17T21:15:06.946Z,2.67
2019-03-17T21:17:32.628Z,2.40
2019-03-17T21:19:58.295Z,4.23
2019-03-17T21:22:23.820Z,2.10
2019-03-17T21:24:49.387Z,3.00
2019-03-17T21:27:14.930Z,3.60
2019-03-17T21:29:40.463Z,2.50
2019-03-17T21:32:06.152Z,1.90
2019-03-17T21:34:31.756Z,2.73
2019-03-17T21:36:57.660Z,2.50
2019-03-17T21:39:23.347Z,2.40
2019-03-17T21:41:48.932Z,2.30
2019-03-17T21:44:21.188Z,2.50
2019-03-17T21:46:46.957Z,2.30
2019-03-17T21:49:20.331Z,2.20
2019-03-17T21:51:47.765Z,3.00
2019-03-17T21:54:13.292Z,2.63
2019-03-17T21:56:39.009Z,2.37
2019-03-17T21:59:04.758Z,2.97
2019-03-17T22:01:30.759Z,2.50
2019-03-17T22:03:56.603Z,2.13
2019-03-17T22:06:25.977Z,2.50
2019-03-17T22:08:52.174Z,2.30
2019-03-17T22:11:17.783Z,2.50
2019-03-17T22:13:43.728Z,2.57
2019-03-17T22:16:09.296Z,2.40
2019-03-17T22:18:35.003Z,2.43
2019-03-17T22:21:00.943Z,3.27
2019-03-17T22:23:26.587Z,3.10
2019-03-17T22:25:53.198Z,3.10
2019-03-17T22:28:27.207Z,2.30
2019-03-17T22:30:54.690Z,2.93
2019-03-17T22:33:33.097Z,2.40
2019-03-17T22:36:33.682Z,1.80
2019-03-17T22:39:01.502Z,2.53
2019-03-17T22:41:29.476Z,2.40
2019-03-17T22:43:55.308Z,4.17
2019-03-17T22:46:21.431Z,3.07
2019-03-17T22:48:47.446Z,3.43
2019-03-17T22:51:13.338Z,3.10
2019-03-17T22:53:39.192Z,2.07
2019-03-17T22:56:06.942Z,2.70
2019-03-17T23:01:17.101Z,2.43
2019-03-17T23:03:43.156Z,3.00
2019-03-17T23:06:09.097Z,3.50
2019-03-17T23:14:18.106Z,2.50
2019-03-17T23:22:31.152Z,2.70
2019-03-17T23:24:58.735Z,2.20
2019-03-17T23:27:24.915Z,2.57
2019-03-17T23:29:50.947Z,3.03
2019-03-17T23:32:17.124Z,2.70
2019-03-17T23:34:43.126Z,2.37
2019-03-17T23:37:08.808Z,1.97
2019-03-17T23:39:34.536Z,2.77
2019-03-17T23:42:02.695Z,3.47
2019-03-17T23:44:28.291Z,2.20
2019-03-17T23:46:54.006Z,2.60
2019-03-17T23:49:19.777Z,2.57
2019-03-17T23:51:45.448Z,2.90
2019-03-17T23:54:11.044Z,2.43
2019-03-17T23:56:36.904Z,1.80
2019-03-17T23:59:02.671Z,2.40
